METAR Data
IDs: Format: Raw Decoded Include TAF

Data at: 1353 UTC 26 Feb 2021

LTBA 261320Z 26005KT 230V290 CAVOK 13/06 Q1026 NOSIG RMK RWY23 26007KT